Time;durP1;ratioP1;P1;durP2;ratioP2;P2;SDS_P1;SDS_P2;PMS_P1;PMS_P2;Temp;Humidity;BMP_temperature;BMP_pressure;BME280_temperature;BME280_humidity;BME280_pressure;Samples;Min_cycle;Max_cycle;Signal;HPM_P1;HPM_P2
2023/08/28 00:01:49;;;;;;;0.20;0.20;;;12.70;99.90;;;;;;5048043;28;20213;-85
2023/08/28 00:04:14;;;;;;;0.20;0.20;;;12.70;99.90;;;;;;5051651;28;20183;-86
2023/08/28 00:06:40;;;;;;;0.20;0.20;;;12.60;99.90;;;;;;5049748;28;20252;-85
2023/08/28 00:09:05;;;;;;;0.20;0.20;;;12.60;99.90;;;;;;5075055;28;20218;-85
2023/08/28 00:11:31;;;;;;;0.20;0.20;;;12.50;99.90;;;;;;5047978;28;20261;-85
2023/08/28 00:13:56;;;;;;;0.20;0.20;;;12.60;99.90;;;;;;5048869;28;20183;-84
2023/08/28 00:16:22;;;;;;;0.20;0.20;;;12.60;99.90;;;;;;5049413;28;20200;-85
2023/08/28 00:18:47;;;;;;;0.10;0.10;;;12.50;99.90;;;;;;5050166;28;20230;-85
2023/08/28 00:21:13;;;;;;;0.20;0.20;;;12.50;99.90;;;;;;5050136;28;20236;-84
2023/08/28 00:23:38;;;;;;;0.20;0.20;;;12.50;99.90;;;;;;5049327;28;20194;-84
2023/08/28 00:26:04;;;;;;;0.20;0.20;;;12.50;99.90;;;;;;5046312;28;20193;-85
2023/08/28 00:28:29;;;;;;;0.10;0.10;;;12.50;99.90;;;;;;5067373;28;20194;-85
2023/08/28 00:30:55;;;;;;;0.10;0.10;;;12.50;99.90;;;;;;5061035;28;20190;-86
2023/08/28 00:33:20;;;;;;;0.20;0.20;;;12.40;99.90;;;;;;5048866;28;20242;-85
2023/08/28 00:35:46;;;;;;;0.20;0.20;;;12.40;99.90;;;;;;5047661;28;20273;-85
2023/08/28 00:38:12;;;;;;;0.20;0.20;;;12.40;99.90;;;;;;5049449;28;20229;-84
2023/08/28 00:40:41;;;;;;;0.20;0.20;;;12.40;99.90;;;;;;5050095;28;20725;-84
2023/08/28 00:43:08;;;;;;;0.20;0.20;;;12.30;99.90;;;;;;5032844;28;20517;-84
2023/08/28 00:45:35;;;;;;;0.20;0.20;;;12.40;99.90;;;;;;5035541;28;20449;-85
2023/08/28 00:48:02;;;;;;;0.20;0.20;;;12.30;99.90;;;;;;5049361;28;20457;-84
2023/08/28 00:50:27;;;;;;;0.20;0.20;;;12.30;99.90;;;;;;5054919;28;20489;-85
2023/08/28 00:52:53;;;;;;;0.10;0.10;;;12.30;99.90;;;;;;5066532;28;20433;-85
2023/08/28 00:55:19;;;;;;;0.20;0.20;;;12.40;99.90;;;;;;5049512;28;20274;-84
2023/08/28 00:57:44;;;;;;;0.20;0.20;;;12.40;99.90;;;;;;5049720;28;20221;-84
2023/08/28 01:00:10;;;;;;;0.17;0.17;;;12.40;99.90;;;;;;5048231;28;20441;-84
2023/08/28 01:02:38;;;;;;;0.20;0.20;;;12.40;99.90;;;;;;5049223;28;20194;-84
2023/08/28 01:05:05;;;;;;;0.10;0.10;;;12.40;99.90;;;;;;5045852;28;20441;-85
2023/08/28 01:07:57;;;;;;;0.20;0.20;;;12.50;99.90;;;;;;5050190;28;20444;-85
2023/08/28 01:10:33;;;;;;;0.20;0.20;;;12.50;99.90;;;;;;5036460;28;20532;-84
2023/08/28 01:13:23;;;;;;;0.20;0.20;;;12.50;99.90;;;;;;5052495;28;20444;-84
2023/08/28 01:15:49;;;;;;;0.20;0.20;;;12.50;99.90;;;;;;5036171;28;20468;-85
2023/08/28 01:18:16;;;;;;;0.10;0.10;;;12.40;99.90;;;;;;5048314;28;20491;-84
2023/08/28 01:20:42;;;;;;;0.10;0.10;;;12.40;99.90;;;;;;5048492;28;20449;-83
2023/08/28 01:23:26;;;;;;;0.20;0.20;;;12.40;99.90;;;;;;5055103;28;20442;-83
2023/08/28 01:25:53;;;;;;;0.20;0.20;;;12.50;99.90;;;;;;5036538;28;20973;-83
2023/08/28 01:28:19;;;;;;;0.20;0.20;;;12.50;99.90;;;;;;5050058;28;20445;-83
2023/08/28 01:30:45;;;;;;;0.20;0.20;;;12.50;99.90;;;;;;5050265;28;20509;-85
2023/08/28 01:33:10;;;;;;;0.10;0.10;;;12.40;99.90;;;;;;5050224;28;20457;-83
2023/08/28 01:35:36;;;;;;;0.20;0.20;;;12.40;99.90;;;;;;5046390;28;20192;-85
2023/08/28 01:38:16;;;;;;;0.10;0.10;;;12.40;99.90;;;;;;5059669;28;20209;-84
2023/08/28 01:40:49;;;;;;;0.20;0.20;;;12.40;99.90;;;;;;5057101;28;20581;-82
2023/08/28 01:43:20;;;;;;;0.20;0.20;;;12.40;99.90;;;;;;5059071;28;20431;-83
2023/08/28 01:45:46;;;;;;;0.10;0.10;;;12.50;99.90;;;;;;5061622;28;20448;-85
2023/08/28 01:48:12;;;;;;;0.10;0.10;;;12.50;99.90;;;;;;5049995;28;20413;-85
2023/08/28 01:50:38;;;;;;;0.20;0.20;;;12.50;99.90;;;;;;5049280;28;20186;-85
2023/08/28 01:53:03;;;;;;;0.20;0.20;;;12.50;99.90;;;;;;5049116;28;20440;-85
2023/08/28 01:55:44;;;;;;;0.10;0.10;;;12.50;99.90;;;;;;5046733;28;20201;-84
2023/08/28 01:58:09;;;;;;;0.20;0.20;;;12.60;99.90;;;;;;5033238;28;20250;-84
2023/08/28 02:00:35;;;;;;;0.20;0.20;;;12.60;99.90;;;;;;5043009;28;20492;-85
2023/08/28 02:03:01;;;;;;;0.20;0.20;;;12.60;99.90;;;;;;5048325;28;20198;-85
2023/08/28 02:05:26;;;;;;;0.20;0.20;;;12.60;99.90;;;;;;5046626;28;20188;-85
2023/08/28 02:07:52;;;;;;;0.13;0.13;;;12.60;99.90;;;;;;5048374;28;20186;-84
2023/08/28 02:10:18;;;;;;;0.20;0.20;;;12.60;99.90;;;;;;5049641;28;20277;-85
2023/08/28 02:12:43;;;;;;;0.20;0.20;;;12.60;99.90;;;;;;5063485;28;20198;-85
2023/08/28 02:15:09;;;;;;;0.10;0.10;;;12.60;99.90;;;;;;5052265;28;20195;-85
2023/08/28 02:17:34;;;;;;;0.10;0.10;;;12.60;99.90;;;;;;5048982;28;20708;-87
2023/08/28 02:20:00;;;;;;;0.20;0.20;;;12.60;99.90;;;;;;5045438;28;20460;-86
2023/08/28 02:22:26;;;;;;;0.20;0.20;;;12.60;99.90;;;;;;5045780;28;20191;-85
2023/08/28 02:24:51;;;;;;;0.10;0.10;;;12.60;99.90;;;;;;5054535;28;20708;-85
2023/08/28 02:27:17;;;;;;;0.17;0.17;;;12.60;99.90;;;;;;5056298;28;20269;-84
2023/08/28 02:29:43;;;;;;;0.20;0.20;;;12.50;99.90;;;;;;5066061;28;20185;-84
2023/08/28 02:32:08;;;;;;;0.10;0.10;;;12.50;99.90;;;;;;5050618;28;20445;-85
2023/08/28 02:34:34;;;;;;;0.10;0.10;;;12.50;99.90;;;;;;5047069;28;20222;-85
2023/08/28 02:36:59;;;;;;;0.20;0.20;;;12.60;99.90;;;;;;5052689;28;20187;-85
2023/08/28 02:39:25;;;;;;;0.10;0.10;;;12.60;99.90;;;;;;5050940;28;20226;-84
2023/08/28 02:41:50;;;;;;;0.20;0.20;;;12.60;99.90;;;;;;5052569;28;20251;-85
2023/08/28 02:44:16;;;;;;;0.10;0.10;;;12.60;99.90;;;;;;5052682;28;20190;-84
2023/08/28 02:46:41;;;;;;;0.10;0.10;;;12.60;99.90;;;;;;5048783;28;20269;-85
2023/08/28 02:49:07;;;;;;;0.10;0.10;;;12.70;99.90;;;;;;5047805;28;20236;-85
2023/08/28 02:51:32;;;;;;;0.10;0.10;;;12.70;99.90;;;;;;5040352;28;20205;-85
2023/08/28 02:53:58;;;;;;;0.20;0.20;;;12.60;99.90;;;;;;5048269;28;20202;-85
2023/08/28 02:56:26;;;;;;;0.10;0.10;;;12.70;99.90;;;;;;5050828;28;20201;-84
2023/08/28 02:58:53;;;;;;;0.20;0.20;;;12.70;99.90;;;;;;5060035;28;20717;-86
2023/08/28 03:01:19;;;;;;;0.10;0.10;;;12.70;99.90;;;;;;5051026;28;20811;-85
2023/08/28 03:03:46;;;;;;;0.10;0.10;;;12.70;99.90;;;;;;5050774;28;20499;-85
2023/08/28 03:06:12;;;;;;;0.20;0.20;;;12.70;99.90;;;;;;5049507;28;20944;-85
2023/08/28 03:08:38;;;;;;;0.10;0.10;;;12.80;99.90;;;;;;5047091;28;20455;-85
2023/08/28 03:11:03;;;;;;;0.20;0.20;;;12.80;99.90;;;;;;5050131;28;20183;-85
2023/08/28 03:13:29;;;;;;;0.10;0.10;;;12.80;99.90;;;;;;5049842;28;20553;-84
2023/08/28 03:15:54;;;;;;;0.20;0.20;;;12.80;99.90;;;;;;5048702;28;20191;-85
2023/08/28 03:18:20;;;;;;;0.20;0.20;;;12.80;99.90;;;;;;5050562;28;20734;-85
2023/08/28 03:20:45;;;;;;;0.10;0.10;;;12.80;99.90;;;;;;5052488;28;20179;-85
2023/08/28 03:23:11;;;;;;;0.20;0.20;;;12.80;99.90;;;;;;5036224;28;20785;-85
2023/08/28 03:25:37;;;;;;;0.10;0.10;;;12.80;99.90;;;;;;5046358;28;20182;-84
2023/08/28 03:28:06;;;;;;;0.10;0.10;;;12.80;99.90;;;;;;5048632;28;20663;-85
2023/08/28 03:30:32;;;;;;;0.10;0.10;;;12.80;99.90;;;;;;5049739;28;20183;-84
2023/08/28 03:32:58;;;;;;;0.10;0.10;;;12.70;99.90;;;;;;5068904;28;20562;-84
2023/08/28 03:35:23;;;;;;;0.20;0.20;;;12.80;99.90;;;;;;5060180;28;20202;-85
2023/08/28 03:37:49;;;;;;;0.10;0.10;;;12.70;99.90;;;;;;5058293;28;20218;-84
2023/08/28 03:40:14;;;;;;;0.10;0.10;;;12.70;99.90;;;;;;5041897;28;20194;-85
2023/08/28 03:42:40;;;;;;;0.10;0.10;;;12.70;99.90;;;;;;5060547;28;20190;-85
2023/08/28 03:45:06;;;;;;;0.10;0.10;;;12.70;99.90;;;;;;5051458;28;20247;-84
2023/08/28 03:47:31;;;;;;;0.10;0.10;;;12.70;99.90;;;;;;5050098;28;20550;-84
2023/08/28 03:49:57;;;;;;;0.10;0.10;;;12.60;99.90;;;;;;5053923;28;20455;-84
2023/08/28 03:52:22;;;;;;;0.10;0.10;;;12.60;99.90;;;;;;5051209;28;20274;-84
2023/08/28 03:54:48;;;;;;;0.20;0.20;;;12.60;99.90;;;;;;5043940;28;20773;-84
2023/08/28 03:57:13;;;;;;;0.20;0.20;;;12.60;99.90;;;;;;5035554;28;20187;-85
2023/08/28 03:59:39;;;;;;;0.20;0.20;;;12.60;99.90;;;;;;5035892;28;20675;-84
2023/08/28 04:02:04;;;;;;;0.10;0.10;;;12.60;99.90;;;;;;5044373;28;20191;-84
2023/08/28 04:04:30;;;;;;;0.10;0.10;;;12.60;99.90;;;;;;5046846;28;20220;-84
2023/08/28 04:06:58;;;;;;;0.20;0.20;;;12.60;99.90;;;;;;5043432;28;20195;-84
2023/08/28 04:09:23;;;;;;;0.10;0.10;;;12.60;99.90;;;;;;5046952;28;20646;-84
2023/08/28 04:11:49;;;;;;;0.20;0.20;;;12.50;99.90;;;;;;5048012;28;20552;-83
2023/08/28 04:14:14;;;;;;;0.20;0.20;;;12.50;99.90;;;;;;5057966;28;20199;-84
2023/08/28 04:16:40;;;;;;;0.10;0.10;;;12.60;99.90;;;;;;5042134;28;20244;-83
2023/08/28 04:19:05;;;;;;;0.10;0.10;;;12.50;99.90;;;;;;5051619;28;20254;-83
2023/08/28 04:21:31;;;;;;;0.20;0.20;;;12.50;99.90;;;;;;5049818;28;20211;-84
2023/08/28 04:23:57;;;;;;;0.10;0.10;;;12.60;99.90;;;;;;5049216;28;20874;-84
2023/08/28 04:26:22;;;;;;;0.10;0.10;;;12.60;99.90;;;;;;5050971;28;20202;-84
2023/08/28 04:28:48;;;;;;;0.10;0.10;;;12.60;99.90;;;;;;5049723;28;20210;-84
2023/08/28 04:31:13;;;;;;;0.10;0.10;;;12.50;99.90;;;;;;5048455;28;20205;-84
2023/08/28 04:33:39;;;;;;;0.10;0.10;;;12.50;99.90;;;;;;5049313;28;20240;-84
2023/08/28 04:36:05;;;;;;;0.10;0.10;;;12.60;99.90;;;;;;5053718;28;20189;-84
2023/08/28 04:38:30;;;;;;;0.10;0.10;;;12.50;99.90;;;;;;5051644;28;20237;-84
2023/08/28 04:40:56;;;;;;;0.10;0.10;;;12.50;99.90;;;;;;5049404;28;20186;-84
2023/08/28 04:43:21;;;;;;;0.17;0.17;;;12.50;99.90;;;;;;5047403;28;20193;-84
2023/08/28 04:45:50;;;;;;;0.10;0.10;;;12.50;99.90;;;;;;5046114;28;20197;-84
2023/08/28 04:48:15;;;;;;;0.20;0.20;;;12.60;99.90;;;;;;5047127;28;20240;-84
2023/08/28 04:50:41;;;;;;;0.10;0.10;;;12.60;99.90;;;;;;5046783;28;20441;-85
2023/08/28 04:53:07;;;;;;;0.10;0.10;;;12.60;99.90;;;;;;5048665;28;20240;-84
2023/08/28 04:55:33;;;;;;;0.10;0.10;;;12.60;99.90;;;;;;5055686;28;20911;-83
2023/08/28 04:57:58;;;;;;;0.20;0.20;;;12.60;99.90;;;;;;5048321;28;20967;-84
2023/08/28 05:00:24;;;;;;;0.20;0.20;;;12.60;99.90;;;;;;5040888;28;20197;-84
2023/08/28 05:02:49;;;;;;;0.10;0.10;;;12.60;99.90;;;;;;5041867;28;20214;-84
2023/08/28 05:05:15;;;;;;;0.20;0.20;;;12.60;99.90;;;;;;5046448;28;20183;-84
2023/08/28 05:07:41;;;;;;;0.10;0.10;;;12.70;99.90;;;;;;5043068;28;20179;-84
2023/08/28 05:10:06;;;;;;;0.20;0.20;;;12.70;99.90;;;;;;5047079;28;20269;-85
2023/08/28 05:12:32;;;;;;;0.10;0.10;;;12.80;99.90;;;;;;5048310;28;20788;-87
2023/08/28 05:14:57;;;;;;;0.20;0.20;;;12.70;99.90;;;;;;5046934;28;20260;-86
2023/08/28 05:17:23;;;;;;;0.17;0.17;;;12.80;99.90;;;;;;5042888;28;20214;-84
2023/08/28 05:19:48;;;;;;;0.10;0.10;;;12.80;99.90;;;;;;5048940;28;20221;-84
2023/08/28 05:22:14;;;;;;;0.20;0.20;;;12.80;99.90;;;;;;5047447;28;20187;-85
2023/08/28 05:24:40;;;;;;;0.13;0.13;;;12.80;99.90;;;;;;5051536;28;20354;-84
2023/08/28 05:27:05;;;;;;;0.20;0.20;;;12.90;99.90;;;;;;5053687;28;20183;-84
2023/08/28 05:29:31;;;;;;;0.10;0.10;;;12.80;99.90;;;;;;5047992;28;20696;-85
2023/08/28 05:31:56;;;;;;;0.10;0.10;;;12.90;99.90;;;;;;5042726;28;20194;-85
2023/08/28 05:34:22;;;;;;;0.10;0.10;;;12.90;99.90;;;;;;5044957;28;20232;-85
2023/08/28 05:36:47;;;;;;;0.10;0.10;;;12.90;99.90;;;;;;5047433;28;20259;-85
2023/08/28 05:39:13;;;;;;;0.10;0.10;;;13.00;99.90;;;;;;5042353;28;20230;-83
2023/08/28 05:41:38;;;;;;;0.10;0.10;;;13.00;99.90;;;;;;5049911;28;20209;-84
2023/08/28 05:44:04;;;;;;;0.10;0.10;;;13.00;99.90;;;;;;5053938;28;20191;-84
2023/08/28 05:46:30;;;;;;;0.10;0.10;;;13.00;99.90;;;;;;5047774;28;20201;-85
2023/08/28 05:48:55;;;;;;;0.10;0.10;;;13.00;99.90;;;;;;5046153;28;20186;-85
2023/08/28 05:51:21;;;;;;;0.10;0.10;;;13.10;99.90;;;;;;5043005;28;20717;-85
2023/08/28 05:53:46;;;;;;;0.10;0.10;;;13.20;99.90;;;;;;5045013;28;20186;-85
2023/08/28 05:56:12;;;;;;;0.10;0.10;;;13.30;99.90;;;;;;5047151;28;20240;-85
2023/08/28 05:58:37;;;;;;;0.10;0.10;;;13.30;99.90;;;;;;5045476;28;20218;-84
2023/08/28 06:01:03;;;;;;;0.10;0.10;;;13.40;99.90;;;;;;5046464;28;20293;-82
2023/08/28 06:03:28;;;;;;;0.10;0.10;;;13.50;99.90;;;;;;5047446;28;20186;-82
2023/08/28 06:05:55;;;;;;;0.10;0.10;;;13.60;99.90;;;;;;5047601;28;20233;-84
2023/08/28 06:08:20;;;;;;;0.10;0.10;;;13.80;99.90;;;;;;5045829;28;20190;-84
2023/08/28 06:10:46;;;;;;;0.10;0.10;;;13.90;99.90;;;;;;5045945;28;20518;-85
2023/08/28 06:13:12;;;;;;;0.10;0.10;;;14.00;99.90;;;;;;5047738;28;20183;-84
2023/08/28 06:15:37;;;;;;;0.10;0.10;;;14.10;99.90;;;;;;5048102;28;20278;-85
2023/08/28 06:18:04;;;;;;;0.10;0.10;;;14.20;99.90;;;;;;5046131;28;20929;-83
2023/08/28 06:20:30;;;;;;;0.10;0.10;;;14.30;99.90;;;;;;5043221;28;20297;-83
2023/08/28 06:22:56;;;;;;;0.10;0.10;;;14.30;99.90;;;;;;5057858;28;20436;-84
2023/08/28 06:25:23;;;;;;;0.10;0.10;;;14.40;99.90;;;;;;5054505;28;20444;-84
2023/08/28 06:27:48;;;;;;;0.10;0.10;;;14.50;99.90;;;;;;5045167;28;20262;-84
2023/08/28 06:30:14;;;;;;;0.10;0.10;;;14.50;99.90;;;;;;5047960;28;21957;-85
2023/08/28 06:32:39;;;;;;;0.10;0.10;;;14.60;99.90;;;;;;5042258;28;20749;-84
2023/08/28 06:35:05;;;;;;;0.10;0.10;;;14.60;99.90;;;;;;5048876;28;20597;-85
2023/08/28 06:37:31;;;;;;;0.10;0.10;;;14.70;99.90;;;;;;5052424;28;20195;-85
2023/08/28 06:39:57;;;;;;;0.10;0.10;;;14.80;99.90;;;;;;5047567;28;20451;-84
2023/08/28 06:42:22;;;;;;;0.10;0.10;;;14.90;99.90;;;;;;5046774;28;20201;-84
2023/08/28 06:44:48;;;;;;;0.10;0.10;;;15.00;99.90;;;;;;5045066;28;20191;-84
2023/08/28 06:47:13;;;;;;;0.10;0.10;;;15.00;99.90;;;;;;5046823;28;20614;-85
2023/08/28 06:49:39;;;;;;;0.10;0.10;;;15.10;99.90;;;;;;5045505;28;20197;-86
2023/08/28 06:52:05;;;;;;;0.10;0.10;;;15.20;99.90;;;;;;5046048;28;20186;-85
2023/08/28 06:54:32;;;;;;;0.10;0.10;;;15.20;99.90;;;;;;5046390;28;20274;-85
2023/08/28 06:56:58;;;;;;;0.10;0.10;;;15.20;99.90;;;;;;5045593;28;20318;-85
2023/08/28 06:59:23;;;;;;;0.10;0.10;;;15.30;99.90;;;;;;5043795;28;21364;-83
2023/08/28 07:01:49;;;;;;;0.10;0.10;;;15.30;99.90;;;;;;5046589;28;20956;-86
2023/08/28 07:04:14;;;;;;;0.10;0.10;;;15.40;99.90;;;;;;5040176;28;20656;-85
2023/08/28 07:06:40;;;;;;;0.10;0.10;;;15.70;99.90;;;;;;5043981;28;20175;-87
2023/08/28 07:09:05;;;;;;;0.10;0.10;;;15.70;99.90;;;;;;5048471;28;20178;-84
2023/08/28 07:11:31;;;;;;;0.10;0.10;;;15.70;99.90;;;;;;5031593;28;20671;-85
2023/08/28 07:13:58;;;;;;;0.10;0.10;;;15.90;99.90;;;;;;5042952;28;20195;-83
2023/08/28 07:16:24;;;;;;;0.10;0.10;;;15.90;99.90;;;;;;5042101;28;20271;-84
2023/08/28 07:18:49;;;;;;;0.10;0.10;;;16.00;99.90;;;;;;5053605;28;20492;-84
2023/08/28 07:21:15;;;;;;;0.10;0.10;;;16.10;99.90;;;;;;5050903;28;20191;-85
2023/08/28 07:23:41;;;;;;;0.10;0.10;;;16.30;99.90;;;;;;5049487;28;20280;-84
2023/08/28 07:26:07;;;;;;;0.10;0.10;;;16.40;99.90;;;;;;5043584;28;20446;-83
2023/08/28 07:28:33;;;;;;;0.10;0.10;;;16.40;99.90;;;;;;5048425;28;20526;-81
2023/08/28 07:31:00;;;;;;;0.10;0.10;;;16.60;99.90;;;;;;5048040;28;20669;-83
2023/08/28 07:33:25;;;;;;;0.10;0.10;;;16.60;99.90;;;;;;5048403;28;20254;-80
2023/08/28 07:35:51;;;;;;;0.10;0.10;;;16.50;99.90;;;;;;5046322;28;20503;-82
2023/08/28 07:38:17;;;;;;;0.10;0.10;;;16.60;99.90;;;;;;5047742;28;20226;-83
2023/08/28 07:40:43;;;;;;;0.10;0.10;;;16.80;99.90;;;;;;5045773;28;20583;-83
2023/08/28 07:43:08;;;;;;;0.10;0.10;;;16.80;99.90;;;;;;5051395;28;20449;-84
2023/08/28 07:45:34;;;;;;;0.10;0.10;;;16.70;99.90;;;;;;5043201;28;20186;-83
2023/08/28 07:48:00;;;;;;;0.10;0.10;;;16.70;99.90;;;;;;5054476;28;20535;-82
2023/08/28 07:50:28;;;;;;;0.10;0.10;;;16.90;99.90;;;;;;5047429;28;20854;-82
2023/08/28 07:52:54;;;;;;;0.10;0.10;;;16.70;99.90;;;;;;5046749;28;20187;-84
2023/08/28 07:55:19;;;;;;;0.10;0.10;;;16.60;99.90;;;;;;5045952;28;20856;-84
2023/08/28 07:57:45;;;;;;;0.10;0.10;;;16.80;99.90;;;;;;5044984;28;20194;-84
2023/08/28 08:00:13;;;;;;;0.10;0.10;;;16.90;99.90;;;;;;5047722;28;20198;-84
2023/08/28 08:02:40;;;;;;;0.10;0.10;;;16.90;99.90;;;;;;5045754;28;20321;-84
2023/08/28 08:05:07;;;;;;;0.10;0.10;;;16.80;99.90;;;;;;5048190;28;20449;-84
2023/08/28 08:07:33;;;;;;;0.10;0.10;;;17.00;99.90;;;;;;5049038;28;20433;-84
2023/08/28 08:09:58;;;;;;;0.10;0.10;;;17.40;99.90;;;;;;5049642;28;20813;-84
2023/08/28 08:12:26;;;;;;;0.10;0.10;;;17.70;99.90;;;;;;5044102;28;20190;-84
2023/08/28 08:14:52;;;;;;;0.10;0.10;;;17.80;99.90;;;;;;5038960;28;20179;-83
2023/08/28 08:17:18;;;;;;;0.10;0.10;;;17.70;99.90;;;;;;5033552;28;20441;-83
2023/08/28 08:19:43;;;;;;;0.10;0.10;;;17.90;99.90;;;;;;5040195;28;20694;-84
2023/08/28 08:22:09;;;;;;;0.10;0.10;;;18.10;99.90;;;;;;5045420;28;20199;-84
2023/08/28 08:24:34;;;;;;;0.10;0.10;;;18.10;99.90;;;;;;5046073;28;20621;-83
2023/08/28 08:27:00;;;;;;;0.10;0.10;;;17.60;99.90;;;;;;5041793;28;20234;-82
2023/08/28 08:29:26;;;;;;;0.10;0.10;;;17.50;99.90;;;;;;5041544;28;20264;-82
2023/08/28 08:31:52;;;;;;;0.10;0.10;;;17.40;99.90;;;;;;5046641;28;20190;-82
2023/08/28 08:34:18;;;;;;;0.10;0.10;;;17.30;99.90;;;;;;5047966;28;20512;-84
2023/08/28 08:36:44;;;;;;;0.10;0.10;;;17.70;99.90;;;;;;5047357;28;20571;-83
2023/08/28 08:39:09;;;;;;;0.10;0.10;;;17.70;99.90;;;;;;5045956;28;20541;-84
2023/08/28 08:41:36;;;;;;;0.03;0.03;;;18.00;99.90;;;;;;5041882;28;20555;-84
2023/08/28 08:44:03;;;;;;;0.10;0.10;;;18.30;99.90;;;;;;5045576;28;20206;-85
2023/08/28 08:46:28;;;;;;;0.10;0.10;;;18.60;99.90;;;;;;5042327;28;20456;-83
2023/08/28 08:48:59;;;;;;;0.10;0.10;;;18.70;99.90;;;;;;5043702;28;20284;-86
2023/08/28 08:51:28;;;;;;;0.10;0.10;;;18.90;99.90;;;;;;5046240;28;20273;-84
2023/08/28 08:54:01;;;;;;;0.10;0.10;;;19.30;99.90;;;;;;5042006;28;20451;-85
2023/08/28 08:56:31;;;;;;;0.10;0.10;;;19.30;99.90;;;;;;5050318;28;20441;-84
2023/08/28 08:58:58;;;;;;;0.10;0.10;;;19.10;99.90;;;;;;5046080;28;20529;-84
2023/08/28 09:01:25;;;;;;;0.10;0.00;;;19.10;99.90;;;;;;5046538;28;20968;-83
2023/08/28 09:03:51;;;;;;;0.10;0.00;;;18.80;99.90;;;;;;5041501;28;20499;-82
2023/08/28 09:06:18;;;;;;;0.10;0.00;;;19.10;99.90;;;;;;5046958;28;20539;-83
2023/08/28 09:08:44;;;;;;;0.10;0.10;;;19.30;99.90;;;;;;5077269;28;20191;-84
2023/08/28 09:11:09;;;;;;;0.10;0.00;;;19.00;99.90;;;;;;5049122;28;20942;-84
2023/08/28 09:13:37;;;;;;;0.10;0.00;;;18.70;99.90;;;;;;5045371;28;20441;-82
2023/08/28 09:16:04;;;;;;;0.10;0.00;;;19.10;99.90;;;;;;5043939;28;20678;-82
2023/08/28 09:18:30;;;;;;;0.10;0.10;;;19.30;99.90;;;;;;5047354;28;20832;-83
2023/08/28 09:21:12;;;;;;;0.10;0.00;;;19.80;99.90;;;;;;5047351;28;20460;-82
2023/08/28 09:23:50;;;;;;;0.10;0.00;;;20.30;99.90;;;;;;5048661;28;20425;-83
2023/08/28 09:26:19;;;;;;;0.10;0.00;;;20.90;99.90;;;;;;5043783;28;20469;-83
2023/08/28 09:28:58;;;;;;;0.10;0.00;;;20.60;99.90;;;;;;5048860;28;20460;-83
2023/08/28 09:31:31;;;;;;;0.10;0.07;;;19.80;99.90;;;;;;5049646;28;20453;-83
2023/08/28 09:33:57;;;;;;;0.10;0.00;;;19.50;99.90;;;;;;5045943;28;20468;-84
2023/08/28 09:36:22;;;;;;;0.10;0.00;;;19.20;99.90;;;;;;5036868;28;20915;-83
2023/08/28 09:38:48;;;;;;;0.10;0.10;;;18.80;99.90;;;;;;5047425;28;20222;-83
2023/08/28 09:41:14;;;;;;;0.10;0.00;;;18.90;99.90;;;;;;5050058;28;20189;-83
2023/08/28 09:43:39;;;;;;;0.10;0.10;;;19.80;99.90;;;;;;5048274;28;20191;-83
2023/08/28 09:46:06;;;;;;;0.10;0.00;;;20.60;99.90;;;;;;5042970;28;20187;-84
2023/08/28 09:48:32;;;;;;;0.10;0.00;;;21.20;99.90;;;;;;5049783;28;20186;-84
2023/08/28 09:51:06;;;;;;;0.10;0.00;;;21.30;99.90;;;;;;5050080;28;20418;-83
2023/08/28 09:53:32;;;;;;;0.10;0.00;;;20.00;99.90;;;;;;5047393;28;20433;-84
2023/08/28 09:55:58;;;;;;;0.10;0.00;;;19.50;99.90;;;;;;5048962;28;20452;-84
2023/08/28 09:58:28;;;;;;;0.10;0.00;;;19.50;99.90;;;;;;5048837;28;20476;-84
2023/08/28 10:00:57;;;;;;;0.10;0.00;;;20.30;99.90;;;;;;5043055;28;20897;-85
2023/08/28 10:03:25;;;;;;;0.10;0.00;;;20.70;99.90;;;;;;5049072;28;20473;-84
2023/08/28 10:05:52;;;;;;;0.10;0.00;;;21.30;99.90;;;;;;5053834;28;20442;-83
2023/08/28 10:08:18;;;;;;;0.10;0.00;;;21.60;99.90;;;;;;5047856;28;20433;-84
2023/08/28 10:10:47;;;;;;;0.10;0.00;;;20.80;99.90;;;;;;5034715;28;20445;-84
2023/08/28 10:13:19;;;;;;;0.10;0.00;;;20.10;99.90;;;;;;5049075;28;20443;-84
2023/08/28 10:16:01;;;;;;;0.10;0.00;;;19.60;99.90;;;;;;5047368;28;20595;-83
2023/08/28 10:19:21;;;;;;;0.10;0.00;;;19.00;99.90;;;;;;5042696;28;20491;-84
2023/08/28 10:21:50;;;;;;;0.10;0.10;;;18.70;99.90;;;;;;5035478;28;20487;-84
2023/08/28 10:24:17;;;;;;;0.10;0.00;;;18.60;99.90;;;;;;5049334;28;20534;-83
2023/08/28 10:26:44;;;;;;;0.10;0.00;;;19.20;99.90;;;;;;5045357;28;20470;-84
2023/08/28 10:29:10;;;;;;;0.10;0.00;;;19.10;99.90;;;;;;5044094;28;20448;-84
2023/08/28 10:31:38;;;;;;;0.10;0.00;;;18.90;99.90;;;;;;5045718;28;20449;-84
2023/08/28 10:34:06;;;;;;;0.10;0.10;;;18.80;99.90;;;;;;5044754;28;20480;-84
2023/08/28 10:36:32;;;;;;;0.10;0.10;;;18.70;99.90;;;;;;5049537;28;20816;-83
2023/08/28 10:39:00;;;;;;;0.10;0.00;;;18.80;99.90;;;;;;5036848;28;20492;-84
2023/08/28 10:41:28;;;;;;;0.10;0.00;;;19.20;99.90;;;;;;5041576;28;20564;-85
2023/08/28 10:43:54;;;;;;;0.10;0.00;;;20.00;99.90;;;;;;5038420;28;21211;-84
2023/08/28 10:46:21;;;;;;;0.10;0.00;;;20.30;99.90;;;;;;5029019;28;20540;-85
2023/08/28 10:48:47;;;;;;;0.10;0.00;;;20.40;99.90;;;;;;5042382;28;20565;-84
2023/08/28 10:51:14;;;;;;;0.10;0.00;;;21.40;99.90;;;;;;5050064;28;20460;-83
2023/08/28 10:53:40;;;;;;;0.10;0.00;;;22.60;99.90;;;;;;5053124;28;20513;-85
2023/08/28 10:56:06;;;;;;;0.10;0.00;;;22.10;99.90;;;;;;5049552;28;20527;-85
2023/08/28 10:58:36;;;;;;;0.10;0.00;;;21.40;99.90;;;;;;5051616;28;20210;-84
2023/08/28 11:01:14;;;;;;;0.10;0.00;;;20.90;99.90;;;;;;5046260;28;20519;-85
2023/08/28 11:03:52;;;;;;;0.10;0.00;;;20.40;99.90;;;;;;5062927;28;20959;-85
2023/08/28 11:06:44;;;;;;;0.10;0.00;;;19.70;99.90;;;;;;5048956;28;20494;-85
2023/08/28 11:09:37;;;;;;;0.10;0.00;;;19.40;99.90;;;;;;5043498;28;20463;-83
2023/08/28 11:12:03;;;;;;;0.10;0.00;;;19.50;99.90;;;;;;5046469;28;21011;-84
2023/08/28 11:14:39;;;;;;;0.10;0.00;;;19.30;99.90;;;;;;5045332;28;20452;-86
2023/08/28 11:17:17;;;;;;;0.10;0.07;;;19.10;99.90;;;;;;5046767;28;20437;-84
2023/08/28 11:19:53;;;;;;;0.10;0.00;;;19.60;99.90;;;;;;5049431;28;20553;-84
2023/08/28 11:22:36;;;;;;;0.10;0.00;;;20.20;99.90;;;;;;5046006;28;20997;-83
2023/08/28 11:25:07;;;;;;;0.10;0.00;;;21.50;99.90;;;;;;5049351;28;20457;-84
2023/08/28 11:27:48;;;;;;;0.10;0.00;;;22.50;99.90;;;;;;5047796;28;20441;-85
2023/08/28 11:30:21;;;;;;;0.10;0.00;;;22.70;99.90;;;;;;5043451;28;20451;-85
2023/08/28 11:32:51;;;;;;;0.10;0.00;;;22.20;99.90;;;;;;5046049;28;21077;-85
2023/08/28 11:35:19;;;;;;;0.10;0.00;;;21.50;99.90;;;;;;5046598;28;20449;-84
2023/08/28 11:37:51;;;;;;;0.10;0.00;;;21.40;99.90;;;;;;5049459;28;20495;-84
2023/08/28 11:40:24;;;;;;;0.10;0.00;;;21.10;99.90;;;;;;5046636;28;20526;-85
2023/08/28 11:43:04;;;;;;;0.10;0.00;;;21.30;99.90;;;;;;5049506;28;20437;-86
2023/08/28 11:45:29;;;;;;;0.10;0.00;;;21.30;99.90;;;;;;5054183;28;20480;-86
2023/08/28 11:48:00;;;;;;;0.10;0.00;;;21.00;99.90;;;;;;5051120;28;20465;-84
2023/08/28 11:50:27;;;;;;;0.10;0.00;;;20.90;99.90;;;;;;5050714;28;20243;-85
2023/08/28 11:52:54;;;;;;;0.10;0.10;;;20.50;99.90;;;;;;5063076;28;20443;-85
2023/08/28 11:55:19;;;;;;;0.10;0.00;;;20.40;99.90;;;;;;5051532;28;20473;-85
2023/08/28 11:57:47;;;;;;;0.10;0.00;;;20.40;99.90;;;;;;5049813;28;20583;-86
2023/08/28 12:00:16;;;;;;;0.10;0.00;;;19.90;99.90;;;;;;5048743;28;20637;-86
2023/08/28 12:02:46;;;;;;;0.10;0.00;;;20.10;99.90;;;;;;5054983;28;20896;-87
2023/08/28 12:05:15;;;;;;;0.10;0.00;;;22.00;99.90;;;;;;5054443;28;20453;-85
2023/08/28 12:07:43;;;;;;;0.10;0.00;;;23.50;99.90;;;;;;5052628;28;20603;-85
2023/08/28 12:10:09;;;;;;;0.10;0.00;;;23.80;99.90;;;;;;5052008;28;20449;-86
2023/08/28 12:12:36;;;;;;;0.10;0.00;;;22.70;99.90;;;;;;5052771;28;20443;-86
2023/08/28 12:15:03;;;;;;;0.10;0.00;;;22.10;99.90;;;;;;5049882;28;20453;-85
2023/08/28 12:17:29;;;;;;;0.10;0.00;;;21.30;99.90;;;;;;5053217;28;20859;-86
2023/08/28 12:19:55;;;;;;;0.10;0.00;;;21.00;99.90;;;;;;5049482;28;20499;-82
2023/08/28 12:22:21;;;;;;;0.10;0.00;;;20.50;99.90;;;;;;5045776;28;20952;-84
2023/08/28 12:24:49;;;;;;;0.10;0.00;;;20.30;99.90;;;;;;5059940;28;20441;-83
2023/08/28 12:27:17;;;;;;;0.10;0.00;;;20.10;99.90;;;;;;5057764;28;20432;-84
2023/08/28 12:29:43;;;;;;;0.10;0.00;;;20.40;99.90;;;;;;5061658;28;20499;-83
2023/08/28 12:32:19;;;;;;;0.10;0.00;;;20.50;99.90;;;;;;5048281;28;20503;-83
2023/08/28 12:34:48;;;;;;;0.10;0.00;;;20.50;99.90;;;;;;5054416;28;20452;-84
2023/08/28 12:37:15;;;;;;;0.10;0.00;;;20.60;99.90;;;;;;5081894;28;20819;-84
2023/08/28 12:39:59;;;;;;;0.10;0.00;;;20.80;99.90;;;;;;5045613;28;20496;-84
2023/08/28 12:42:25;;;;;;;0.10;0.00;;;21.00;99.90;;;;;;5045939;28;20506;-84
2023/08/28 12:44:51;;;;;;;0.10;0.00;;;20.90;99.90;;;;;;5067390;28;20537;-84
2023/08/28 12:47:17;;;;;;;0.10;0.00;;;20.90;99.90;;;;;;5052151;28;20525;-85
2023/08/28 12:49:43;;;;;;;0.10;0.00;;;21.50;99.90;;;;;;5051220;28;20206;-84